Time;durP1;ratioP1;P1;durP2;ratioP2;P2;SDS_P1;SDS_P2;PMS_P1;PMS_P2;Temp;Humidity;BMP_temperature;BMP_pressure;BME280_temperature;BME280_humidity;BME280_pressure;Samples;Min_cycle;Max_cycle;Signal;HPM_P1;HPM_P2
2021/01/20 00:01:27;;;;;;;7.23;4.20;;;1.00;99.90;;;;;;5010661;28;21023;-49
2021/01/20 00:03:55;;;;;;;6.30;3.77;;;0.90;99.90;;;;;;5012564;28;21153;-49
2021/01/20 00:06:21;;;;;;;8.20;4.00;;;0.70;99.90;;;;;;5013721;28;20507;-49
2021/01/20 00:08:48;;;;;;;7.90;4.20;;;0.60;99.90;;;;;;5013906;28;20472;-49
2021/01/20 00:11:15;;;;;;;6.10;3.83;;;0.60;99.90;;;;;;5013761;28;20449;-49
2021/01/20 00:13:42;;;;;;;7.07;3.70;;;0.50;99.90;;;;;;5014064;28;20479;-49
2021/01/20 00:16:08;;;;;;;5.90;3.67;;;0.50;99.90;;;;;;5014002;28;20451;-49
2021/01/20 00:18:35;;;;;;;6.87;4.70;;;0.40;99.90;;;;;;5013118;28;20492;-50
2021/01/20 00:21:01;;;;;;;7.40;4.43;;;0.40;99.90;;;;;;5013060;28;20460;-50
2021/01/20 00:23:28;;;;;;;6.93;4.50;;;0.30;99.90;;;;;;5013528;28;20973;-49
2021/01/20 00:25:54;;;;;;;7.53;4.53;;;0.20;99.90;;;;;;5013294;28;20495;-49
2021/01/20 00:28:22;;;;;;;6.13;4.10;;;0.10;99.90;;;;;;5012795;28;20914;-50
2021/01/20 00:30:48;;;;;;;7.23;4.70;;;0.00;99.90;;;;;;5012684;28;20483;-49
2021/01/20 00:33:14;;;;;;;6.63;4.37;;;0.00;99.90;;;;;;5013297;28;20463;-50
2021/01/20 00:35:41;;;;;;;7.23;4.67;;;0.00;99.90;;;;;;5012923;28;20467;-50
2021/01/20 00:38:08;;;;;;;6.30;4.20;;;0.00;99.90;;;;;;5012311;28;20535;-50
2021/01/20 00:40:34;;;;;;;6.70;4.27;;;0.20;99.90;;;;;;5012882;28;20527;-49
2021/01/20 00:43:01;;;;;;;4.20;3.47;;;0.40;99.90;;;;;;5013165;28;20457;-49
2021/01/20 00:45:28;;;;;;;5.00;3.40;;;0.60;99.90;;;;;;5012146;28;20464;-49
2021/01/20 00:47:54;;;;;;;5.17;3.03;;;0.60;99.90;;;;;;5013179;28;20452;-49
2021/01/20 00:50:21;;;;;;;5.23;3.10;;;0.40;99.90;;;;;;5012679;28;20486;-49
2021/01/20 00:52:47;;;;;;;3.40;3.10;;;0.20;99.90;;;;;;5011780;28;20505;-49
2021/01/20 00:55:15;;;;;;;5.90;3.67;;;0.40;99.90;;;;;;5012746;28;20463;-49
2021/01/20 00:57:43;;;;;;;5.03;3.20;;;0.60;99.90;;;;;;5013030;28;20538;-49
2021/01/20 01:00:11;;;;;;;4.90;3.50;;;0.70;99.90;;;;;;5011320;28;20471;-50
2021/01/20 01:02:38;;;;;;;7.83;4.40;;;0.60;99.90;;;;;;5012774;28;20453;-49
2021/01/20 01:05:06;;;;;;;8.97;3.77;;;0.50;99.90;;;;;;5012314;28;21230;-49
2021/01/20 01:07:33;;;;;;;6.00;3.60;;;0.20;99.90;;;;;;5013087;28;20449;-50
2021/01/20 01:09:59;;;;;;;6.37;4.03;;;0.00;99.90;;;;;;5011600;28;20495;-50
2021/01/20 01:12:26;;;;;;;4.90;3.10;;;0.10;99.90;;;;;;5012069;28;20448;-49
2021/01/20 01:14:52;;;;;;;5.83;3.50;;;0.20;99.90;;;;;;5012804;28;20961;-50
2021/01/20 01:17:19;;;;;;;4.95;4.10;;;0.10;99.90;;;;;;5012434;28;20454;-49
2021/01/20 01:19:46;;;;;;;4.90;3.90;;;0.20;99.90;;;;;;5012159;28;20435;-50
2021/01/20 01:22:13;;;;;;;3.30;3.00;;;0.20;99.90;;;;;;5011172;28;20584;-50
2021/01/20 01:24:39;;;;;;;5.57;3.30;;;0.30;99.90;;;;;;5012897;28;20481;-49
2021/01/20 01:27:06;;;;;;;4.53;3.37;;;0.20;99.90;;;;;;5012597;28;20457;-49
2021/01/20 01:29:32;;;;;;;4.77;3.60;;;0.20;99.90;;;;;;5006336;28;20981;-49
2021/01/20 01:31:59;;;;;;;4.40;3.20;;;0.20;99.90;;;;;;5012787;28;20453;-50
2021/01/20 01:34:25;;;;;;;5.90;3.33;;;0.30;99.90;;;;;;5012259;28;20461;-49
2021/01/20 01:36:53;;;;;;;6.20;3.40;;;0.40;99.90;;;;;;5012392;28;20457;-49
2021/01/20 01:39:20;;;;;;;4.20;2.70;;;0.30;99.90;;;;;;5012128;28;21160;-49
2021/01/20 01:41:46;;;;;;;4.90;2.73;;;0.60;99.90;;;;;;5011327;28;20965;-49
2021/01/20 01:44:13;;;;;;;2.90;2.10;;;0.70;99.90;;;;;;5011080;28;20953;-50
2021/01/20 01:46:39;;;;;;;2.40;1.60;;;0.60;99.90;;;;;;5011803;28;20456;-49
2021/01/20 01:49:06;;;;;;;3.80;2.27;;;0.70;99.90;;;;;;5012149;28;20484;-50
2021/01/20 01:51:32;;;;;;;2.00;1.73;;;0.80;99.90;;;;;;5011731;28;20528;-50
2021/01/20 01:54:00;;;;;;;1.57;1.47;;;0.90;99.90;;;;;;5011991;28;20459;-49
2021/01/20 01:56:26;;;;;;;3.57;1.77;;;1.30;99.90;;;;;;4996260;28;20448;-49
2021/01/20 01:58:53;;;;;;;3.67;1.73;;;1.50;99.90;;;;;;5011654;28;21068;-49
2021/01/20 02:01:21;;;;;;;1.50;1.20;;;1.40;99.90;;;;;;5010990;28;20515;-49
2021/01/20 02:03:49;;;;;;;1.67;1.47;;;1.60;99.90;;;;;;5011771;28;20468;-49
2021/01/20 02:06:15;;;;;;;3.00;1.90;;;1.70;99.90;;;;;;5011938;28;20905;-50
2021/01/20 02:08:42;;;;;;;5.03;1.87;;;1.80;99.90;;;;;;5011266;28;21033;-50
2021/01/20 02:11:33;;;;;;;1.93;1.20;;;1.70;99.90;;;;;;5011376;28;20472;-50
2021/01/20 02:14:08;;;;;;;2.73;1.63;;;1.50;99.90;;;;;;5010862;28;20458;-50
2021/01/20 02:16:37;;;;;;;1.90;1.23;;;1.60;99.90;;;;;;5009914;28;20456;-49
2021/01/20 02:19:09;;;;;;;2.90;1.70;;;1.50;99.90;;;;;;5011313;28;20499;-50
2021/01/20 02:22:10;;;;;;;1.23;1.10;;;1.40;99.90;;;;;;5012587;28;20452;-50
2021/01/20 02:24:47;;;;;;;2.37;1.10;;;1.20;99.90;;;;;;4996249;28;20981;-50
2021/01/20 02:27:24;;;;;;;1.53;1.00;;;1.30;99.90;;;;;;5015383;28;20456;-49
2021/01/20 02:30:11;;;;;;;1.40;1.03;;;1.60;99.90;;;;;;5014059;28;20534;-49
2021/01/20 02:32:40;;;;;;;2.17;1.10;;;1.50;99.90;;;;;;5011807;28;20503;-49
2021/01/20 02:35:09;;;;;;;0.90;0.90;;;1.50;99.90;;;;;;5014754;28;20487;-49
2021/01/20 02:37:37;;;;;;;1.40;1.20;;;1.70;99.90;;;;;;5014970;28;20484;-49
2021/01/20 02:40:05;;;;;;;1.03;0.87;;;1.90;99.90;;;;;;5015046;28;20480;-49
2021/01/20 02:42:32;;;;;;;1.20;1.10;;;1.90;99.90;;;;;;5015256;28;20953;-49
2021/01/20 02:44:58;;;;;;;2.10;1.30;;;1.90;99.90;;;;;;5014421;28;20456;-49
2021/01/20 02:47:26;;;;;;;1.43;1.20;;;1.90;99.90;;;;;;5014694;28;20457;-49
2021/01/20 02:49:54;;;;;;;2.07;1.40;;;1.70;99.90;;;;;;5014409;28;20499;-50
2021/01/20 02:52:31;;;;;;;1.50;1.40;;;1.50;99.90;;;;;;4995869;28;20482;-49
2021/01/20 02:55:01;;;;;;;2.00;1.50;;;1.50;99.90;;;;;;5012991;28;20467;-49
2021/01/20 02:57:32;;;;;;;2.17;1.47;;;1.60;99.90;;;;;;5014419;28;20461;-49
2021/01/20 03:00:01;;;;;;;1.80;1.10;;;1.60;99.90;;;;;;5013877;28;20469;-50
2021/01/20 03:02:30;;;;;;;1.30;1.20;;;1.50;99.90;;;;;;5014867;28;20989;-49
2021/01/20 03:04:59;;;;;;;1.70;1.30;;;1.50;99.90;;;;;;5013743;28;20449;-50
2021/01/20 03:07:26;;;;;;;1.10;1.00;;;1.50;99.90;;;;;;5011152;28;20483;-50
2021/01/20 03:09:53;;;;;;;1.33;1.23;;;1.60;99.90;;;;;;5010208;28;20508;-49
2021/01/20 03:12:26;;;;;;;1.40;1.10;;;1.60;99.90;;;;;;5011216;28;20485;-49
2021/01/20 03:14:55;;;;;;;0.87;0.87;;;1.60;99.90;;;;;;5010810;28;20983;-49
2021/01/20 03:17:21;;;;;;;1.30;1.20;;;1.70;99.90;;;;;;5010304;28;20447;-49
2021/01/20 03:19:49;;;;;;;1.67;0.97;;;1.60;99.90;;;;;;5009773;28;20491;-49
2021/01/20 03:22:15;;;;;;;2.10;1.50;;;1.70;99.90;;;;;;5011048;28;20456;-49
2021/01/20 03:24:42;;;;;;;1.70;1.20;;;1.60;99.90;;;;;;5011138;28;20457;-49
2021/01/20 03:27:09;;;;;;;0.97;0.87;;;1.60;99.90;;;;;;5011029;28;20547;-49
2021/01/20 03:29:36;;;;;;;2.00;1.00;;;1.70;99.90;;;;;;5010363;28;20485;-49
2021/01/20 03:32:03;;;;;;;0.80;0.80;;;1.90;99.90;;;;;;5010619;28;20847;-50
2021/01/20 03:34:29;;;;;;;0.80;0.77;;;1.90;99.90;;;;;;5009693;28;20472;-49
2021/01/20 03:36:57;;;;;;;0.80;0.80;;;2.00;99.90;;;;;;4994654;28;20450;-49
2021/01/20 03:39:23;;;;;;;0.87;0.77;;;2.10;99.90;;;;;;5008803;28;20496;-49
2021/01/20 03:41:50;;;;;;;1.80;0.97;;;2.10;99.90;;;;;;5014626;28;20449;-49
2021/01/20 03:44:16;;;;;;;2.33;1.27;;;2.10;99.90;;;;;;5014634;28;20449;-49
2021/01/20 03:46:43;;;;;;;1.30;0.80;;;2.10;99.90;;;;;;5013914;28;20449;-49
2021/01/20 03:49:09;;;;;;;1.50;0.70;;;2.10;99.90;;;;;;5013694;28;20467;-50
2021/01/20 03:51:36;;;;;;;0.80;0.77;;;2.00;99.90;;;;;;5014296;28;20449;-49
2021/01/20 03:54:04;;;;;;;2.00;0.93;;;2.10;99.90;;;;;;5014639;28;20476;-50
2021/01/20 03:56:30;;;;;;;1.67;1.13;;;2.00;99.90;;;;;;5014084;28;20510;-49
2021/01/20 03:58:59;;;;;;;2.17;1.30;;;1.80;99.90;;;;;;5014006;28;20495;-50
2021/01/20 04:01:26;;;;;;;1.53;1.20;;;1.70;99.90;;;;;;5013249;28;20461;-50
2021/01/20 04:03:55;;;;;;;1.40;1.30;;;1.50;99.90;;;;;;5013539;28;20457;-50
2021/01/20 04:06:22;;;;;;;1.57;1.40;;;1.30;99.90;;;;;;5013852;28;20461;-50
2021/01/20 04:08:50;;;;;;;1.30;1.17;;;1.00;99.90;;;;;;5013674;28;20468;-50
2021/01/20 04:11:17;;;;;;;1.60;1.10;;;1.20;99.90;;;;;;5014095;28;20508;-50
2021/01/20 04:13:44;;;;;;;1.17;0.90;;;1.40;99.90;;;;;;5014362;28;20461;-49
2021/01/20 04:16:10;;;;;;;1.30;1.20;;;1.30;99.90;;;;;;5013675;28;20961;-49
2021/01/20 04:18:37;;;;;;;2.90;1.20;;;1.40;99.90;;;;;;5013617;28;20991;-49
2021/01/20 04:21:04;;;;;;;1.63;1.37;;;1.50;99.90;;;;;;5013864;28;20457;-50
2021/01/20 04:23:30;;;;;;;2.70;1.30;;;1.40;99.90;;;;;;5013825;28;20456;-49
2021/01/20 04:25:57;;;;;;;1.80;1.10;;;1.30;99.90;;;;;;5014081;28;20452;-50
2021/01/20 04:28:24;;;;;;;1.30;1.20;;;1.30;99.90;;;;;;5013770;28;20845;-50
2021/01/20 04:30:51;;;;;;;1.83;1.40;;;1.30;99.90;;;;;;5013473;28;20452;-50
2021/01/20 04:33:17;;;;;;;2.30;1.47;;;1.00;99.90;;;;;;5013834;28;20449;-50
2021/01/20 04:35:44;;;;;;;1.87;1.50;;;1.00;99.90;;;;;;5013411;28;20452;-50
2021/01/20 04:38:10;;;;;;;1.60;1.00;;;1.00;99.90;;;;;;5013340;28;20542;-50
2021/01/20 04:40:37;;;;;;;1.13;1.03;;;1.00;99.90;;;;;;5012685;28;20504;-50
2021/01/20 04:43:03;;;;;;;3.67;1.20;;;1.10;99.90;;;;;;5013662;28;20453;-49
2021/01/20 04:45:31;;;;;;;1.80;1.30;;;1.00;99.90;;;;;;5013239;28;20457;-49
2021/01/20 04:48:00;;;;;;;2.80;0.90;;;0.80;99.90;;;;;;5012722;28;20456;-49
2021/01/20 04:50:30;;;;;;;2.20;1.33;;;0.70;99.90;;;;;;5013670;28;20461;-50
2021/01/20 04:53:01;;;;;;;1.53;1.07;;;0.60;99.90;;;;;;5013400;28;20461;-49
2021/01/20 04:55:28;;;;;;;1.47;1.00;;;0.80;99.90;;;;;;5013499;28;20579;-49
2021/01/20 04:57:56;;;;;;;1.23;0.93;;;1.00;99.90;;;;;;5013231;28;20958;-49
2021/01/20 05:00:23;;;;;;;1.20;0.83;;;1.20;99.90;;;;;;5013128;28;20460;-49
2021/01/20 05:02:52;;;;;;;1.03;0.80;;;1.50;99.90;;;;;;5013081;28;20452;-49
2021/01/20 05:05:19;;;;;;;1.20;1.00;;;1.40;99.90;;;;;;4993696;28;20472;-49
2021/01/20 05:07:45;;;;;;;1.63;0.70;;;1.50;99.90;;;;;;5007499;28;20531;-49
2021/01/20 05:10:13;;;;;;;1.10;0.80;;;1.70;99.90;;;;;;5012733;28;20488;-49
2021/01/20 05:12:41;;;;;;;4.20;1.20;;;1.50;99.90;;;;;;5013062;28;20453;-49
2021/01/20 05:15:10;;;;;;;5.43;4.50;;;1.30;99.90;;;;;;5012430;28;20460;-49
2021/01/20 05:17:37;;;;;;;4.37;3.97;;;1.20;99.90;;;;;;5013025;28;20510;-49
2021/01/20 05:20:06;;;;;;;3.23;2.23;;;1.00;99.90;;;;;;5011750;28;20491;-49
2021/01/20 05:22:32;;;;;;;3.37;2.30;;;0.80;99.90;;;;;;5025157;28;20456;-49
2021/01/20 05:25:01;;;;;;;2.50;2.30;;;0.70;99.90;;;;;;5032804;28;20452;-49
2021/01/20 05:27:29;;;;;;;3.53;2.90;;;0.60;99.90;;;;;;5013270;28;20463;-50
2021/01/20 05:30:00;;;;;;;2.40;2.03;;;0.40;99.90;;;;;;5012674;28;20469;-49
2021/01/20 05:32:27;;;;;;;2.80;1.73;;;0.30;99.90;;;;;;5012943;28;20499;-50
2021/01/20 05:35:02;;;;;;;2.17;1.90;;;0.30;99.90;;;;;;5012635;28;20459;-50
2021/01/20 05:37:29;;;;;;;2.23;1.60;;;0.20;99.90;;;;;;5014320;28;20449;-49
2021/01/20 05:40:10;;;;;;;2.77;2.37;;;0.20;99.90;;;;;;5032317;28;20496;-50
2021/01/20 05:42:49;;;;;;;4.87;1.80;;;0.20;99.90;;;;;;5057388;22;20463;-47
2021/01/20 05:45:17;;;;;;;2.20;1.63;;;0.20;99.90;;;;;;5010720;28;20496;-47
2021/01/20 05:48:04;;;;;;;3.13;1.43;;;0.20;99.90;;;;;;5012547;28;20448;-46
2021/01/20 05:50:31;;;;;;;1.93;1.40;;;0.30;99.90;;;;;;5011868;28;20527;-47
2021/01/20 05:53:09;;;;;;;2.80;1.83;;;0.30;99.90;;;;;;5011818;28;20472;-48
2021/01/20 05:55:37;;;;;;;2.30;1.63;;;0.30;99.90;;;;;;4992402;28;20946;-47
2021/01/20 05:58:05;;;;;;;1.97;1.50;;;0.40;99.90;;;;;;4992397;28;20480;-47
2021/01/20 06:00:32;;;;;;;3.40;1.53;;;0.40;99.90;;;;;;4992415;28;20458;-47
2021/01/20 06:03:00;;;;;;;4.10;1.87;;;0.40;99.90;;;;;;4992693;28;20822;-47
2021/01/20 06:12:13;;;;;;;6.23;2.60;;;0.40;99.90;;;;;;5012209;28;20431;-48
2021/01/20 06:14:40;;;;;;;4.33;2.03;;;0.30;99.90;;;;;;5011907;28;20480;-48
2021/01/20 06:17:14;;;;;;;7.10;2.13;;;0.20;99.90;;;;;;5011991;28;20456;-48
2021/01/20 06:19:46;;;;;;;2.80;2.00;;;0.20;99.90;;;;;;4993544;28;20939;-48
2021/01/20 06:22:15;;;;;;;3.93;1.63;;;0.20;99.90;;;;;;5011320;28;20449;-48
2021/01/20 06:24:47;;;;;;;3.13;1.93;;;0.20;99.90;;;;;;5011545;28;20492;-48
2021/01/20 06:27:20;;;;;;;4.50;1.47;;;0.20;99.90;;;;;;5011762;28;20887;-48
2021/01/20 06:29:57;;;;;;;1.80;1.40;;;0.30;99.90;;;;;;5011475;28;20507;-48
2021/01/20 06:32:26;;;;;;;2.30;1.53;;;0.40;99.90;;;;;;5011288;28;20948;-48
2021/01/20 06:34:54;;;;;;;1.97;1.57;;;0.40;99.90;;;;;;5010738;28;20469;-48
2021/01/20 06:37:35;;;;;;;2.90;1.57;;;0.40;99.90;;;;;;5011760;28;20513;-47
2021/01/20 06:40:03;;;;;;;2.40;1.90;;;0.30;99.90;;;;;;5010678;28;20487;-48
2021/01/20 06:42:33;;;;;;;2.40;1.50;;;0.30;99.90;;;;;;5011115;28;20492;-48
2021/01/20 06:45:16;;;;;;;1.60;1.50;;;0.40;99.90;;;;;;5011450;28;20517;-48
2021/01/20 06:48:05;;;;;;;2.30;1.53;;;0.70;99.90;;;;;;5010770;28;20470;-48
2021/01/20 06:50:33;;;;;;;3.67;1.90;;;0.60;99.90;;;;;;5001989;28;20445;-48
2021/01/20 06:53:03;;;;;;;2.97;2.20;;;0.60;99.90;;;;;;5010714;28;20483;-48
2021/01/20 06:55:33;;;;;;;2.17;1.97;;;0.50;99.90;;;;;;5011293;28;20473;-48
2021/01/20 06:58:19;;;;;;;4.63;2.13;;;0.50;99.90;;;;;;5011697;28;20452;-48
2021/01/20 07:01:13;;;;;;;2.97;2.13;;;0.50;99.90;;;;;;5010465;28;20839;-48
2021/01/20 07:03:40;;;;;;;4.03;2.90;;;0.50;99.90;;;;;;5010535;28;20520;-48
2021/01/20 07:06:43;;;;;;;3.37;2.80;;;0.50;99.90;;;;;;5013952;28;20457;-48
2021/01/20 07:09:11;;;;;;;4.93;2.40;;;0.50;99.90;;;;;;5008401;28;20448;-47
2021/01/20 07:12:08;;;;;;;4.77;3.50;;;0.60;99.90;;;;;;5010072;28;20467;-48
2021/01/20 07:14:35;;;;;;;5.57;2.90;;;0.50;99.90;;;;;;4986611;28;20492;-47
2021/01/20 07:17:06;;;;;;;6.30;3.00;;;0.40;99.90;;;;;;4991439;28;20449;-48
2021/01/20 07:19:37;;;;;;;5.80;3.37;;;0.60;99.90;;;;;;4992863;28;20768;-47
2021/01/20 07:22:04;;;;;;;6.07;2.93;;;0.60;99.90;;;;;;5001092;28;20456;-47
2021/01/20 07:24:32;;;;;;;4.23;2.90;;;0.50;99.90;;;;;;5010656;28;20477;-47
2021/01/20 07:27:03;;;;;;;7.30;3.50;;;0.60;99.90;;;;;;5010711;28;20915;-47
2021/01/20 07:29:30;;;;;;;9.17;4.30;;;0.60;99.90;;;;;;5010738;28;20479;-47
2021/01/20 07:31:58;;;;;;;8.53;4.67;;;0.70;99.90;;;;;;5010895;28;20460;-48
2021/01/20 07:34:34;;;;;;;9.70;5.50;;;0.60;99.90;;;;;;5010748;28;20538;-48
2021/01/20 07:37:07;;;;;;;8.53;5.30;;;0.70;99.90;;;;;;5010763;28;20447;-47
2021/01/20 07:39:33;;;;;;;11.93;7.10;;;0.80;99.90;;;;;;4991237;28;20496;-47
2021/01/20 07:42:00;;;;;;;13.67;7.30;;;0.70;99.90;;;;;;4991205;28;20457;-47
2021/01/20 07:44:28;;;;;;;12.00;6.80;;;1.00;99.90;;;;;;4997664;28;20518;-47
2021/01/20 07:46:59;;;;;;;12.20;6.93;;;0.90;99.90;;;;;;5010308;28;20483;-48
2021/01/20 07:49:26;;;;;;;12.70;5.63;;;1.10;99.90;;;;;;5010342;28;20506;-47
2021/01/20 07:52:03;;;;;;;10.60;5.77;;;1.20;99.90;;;;;;5010480;28;20912;-47
2021/01/20 07:54:36;;;;;;;6.20;4.23;;;1.40;99.90;;;;;;5010421;28;20480;-46
2021/01/20 07:57:03;;;;;;;11.80;7.20;;;1.40;99.90;;;;;;5010684;28;20459;-47
2021/01/20 07:59:31;;;;;;;10.07;6.17;;;1.50;99.90;;;;;;5010311;28;20867;-47
2021/01/20 08:02:07;;;;;;;9.67;5.50;;;1.60;99.90;;;;;;5008810;28;20981;-47
2021/01/20 08:04:34;;;;;;;11.57;5.20;;;1.70;99.90;;;;;;5009667;28;20483;-47
2021/01/20 08:07:00;;;;;;;11.73;6.50;;;1.80;99.90;;;;;;4993245;28;20461;-47
2021/01/20 08:09:37;;;;;;;10.73;6.20;;;2.00;99.90;;;;;;4994892;28;20453;-47
2021/01/20 08:12:06;;;;;;;14.53;6.90;;;2.10;99.90;;;;;;5010701;28;20481;-47
2021/01/20 08:14:34;;;;;;;14.70;7.57;;;2.20;99.90;;;;;;5010287;28;20465;-47
2021/01/20 08:17:01;;;;;;;12.53;6.80;;;2.40;99.90;;;;;;5010494;28;20445;-47
2021/01/20 08:19:29;;;;;;;9.83;6.80;;;2.60;99.90;;;;;;5010092;28;20485;-47
2021/01/20 08:21:56;;;;;;;13.80;7.20;;;2.70;99.90;;;;;;5010587;28;21015;-47
2021/01/20 08:24:23;;;;;;;14.07;7.70;;;2.80;99.90;;;;;;5014009;28;20526;-47
2021/01/20 08:27:00;;;;;;;11.50;6.10;;;2.50;99.90;;;;;;5013911;28;20449;-47
2021/01/20 08:29:27;;;;;;;8.40;5.87;;;2.50;99.90;;;;;;5013866;28;20796;-47
2021/01/20 08:32:08;;;;;;;14.77;6.93;;;2.40;99.90;;;;;;5013694;28;20834;-47
2021/01/20 08:34:37;;;;;;;23.40;10.23;;;2.60;99.90;;;;;;4994211;28;20473;-47
2021/01/20 08:37:05;;;;;;;13.50;7.43;;;2.80;99.90;;;;;;5008018;28;20452;-47
2021/01/20 08:39:32;;;;;;;9.07;6.03;;;3.00;99.90;;;;;;5011787;28;20477;-47
2021/01/20 08:42:22;;;;;;;13.63;6.20;;;3.30;99.90;;;;;;5013908;28;20453;-47
2021/01/20 08:45:04;;;;;;;8.07;6.10;;;3.60;99.90;;;;;;5013584;28;20481;-48
2021/01/20 08:47:31;;;;;;;13.63;7.83;;;3.70;99.90;;;;;;5013748;28;20449;-47
2021/01/20 08:49:58;;;;;;;12.50;8.13;;;3.80;99.90;;;;;;5013327;28;20454;-47
2021/01/20 08:52:25;;;;;;;12.73;6.47;;;3.70;99.90;;;;;;5013752;28;21009;-47
2021/01/20 08:54:52;;;;;;;13.27;7.13;;;3.80;99.90;;;;;;5013469;28;20531;-47
2021/01/20 08:57:19;;;;;;;10.33;4.67;;;4.00;99.90;;;;;;5013551;28;20461;-47
2021/01/20 08:59:56;;;;;;;8.67;5.00;;;4.40;99.90;;;;;;5013043;28;20489;-47
2021/01/20 09:02:24;;;;;;;11.33;5.80;;;4.90;99.90;;;;;;5013106;28;20449;-47
2021/01/20 09:04:51;;;;;;;15.80;7.67;;;5.30;99.90;;;;;;5013226;28;20473;-47
2021/01/20 09:07:19;;;;;;;12.20;6.63;;;5.50;99.90;;;;;;5012789;28;20830;-47
2021/01/20 09:09:46;;;;;;;10.20;6.00;;;5.80;99.90;;;;;;5011659;28;20447;-47
2021/01/20 09:12:13;;;;;;;10.80;6.30;;;6.00;99.90;;;;;;5005470;28;20455;-47
2021/01/20 09:14:39;;;;;;;6.20;3.90;;;6.30;99.90;;;;;;5012617;28;20473;-48
2021/01/20 09:17:07;;;;;;;8.20;4.30;;;6.40;99.90;;;;;;5011923;28;20504;-48
2021/01/20 09:19:34;;;;;;;8.10;5.37;;;6.60;99.90;;;;;;5012428;28;21056;-48
2021/01/20 09:22:00;;;;;;;9.07;5.93;;;6.60;99.90;;;;;;4992895;28;20530;-47
2021/01/20 09:24:29;;;;;;;17.10;7.60;;;6.50;99.90;;;;;;4992778;28;20470;-48
2021/01/20 09:26:56;;;;;;;19.77;10.27;;;6.50;99.90;;;;;;4998998;28;20472;-47
2021/01/20 09:29:27;;;;;;;17.00;9.53;;;6.50;99.90;;;;;;5011962;28;20449;-48
2021/01/20 09:31:54;;;;;;;13.53;8.30;;;6.50;99.90;;;;;;5011462;28;20450;-48
2021/01/20 09:34:21;;;;;;;15.30;10.53;;;6.60;99.90;;;;;;5011613;28;20474;-48
2021/01/20 09:36:47;;;;;;;16.00;9.90;;;6.50;99.90;;;;;;4997932;28;20458;-47
2021/01/20 09:39:14;;;;;;;21.90;10.90;;;6.70;99.90;;;;;;4992482;28;20544;-47
2021/01/20 09:41:42;;;;;;;19.17;10.17;;;6.30;99.90;;;;;;4992693;28;20455;-48
2021/01/20 09:44:08;;;;;;;15.27;10.07;;;6.50;99.90;;;;;;5008114;28;20508;-48
2021/01/20 09:46:35;;;;;;;16.13;10.17;;;6.60;99.90;;;;;;5012427;28;20453;-48
2021/01/20 09:49:01;;;;;;;15.40;9.80;;;6.00;99.90;;;;;;5011843;28;20473;-47
2021/01/20 09:51:30;;;;;;;17.17;9.33;;;6.10;99.90;;;;;;5011857;28;20455;-47
2021/01/20 09:53:56;;;;;;;13.50;8.87;;;6.10;99.90;;;;;;4997555;28;20550;-47
2021/01/20 09:56:23;;;;;;;14.60;8.73;;;6.30;99.90;;;;;;4992251;28;20466;-47
2021/01/20 09:58:50;;;;;;;17.53;8.50;;;6.50;99.90;;;;;;4992219;28;20496;-47
2021/01/20 10:01:17;;;;;;;11.87;7.27;;;6.70;99.90;;;;;;4992121;28;20466;-47
2021/01/20 10:03:43;;;;;;;10.37;7.10;;;6.90;99.90;;;;;;5003718;28;20864;-47
2021/01/20 10:06:10;;;;;;;10.80;7.33;;;6.90;99.90;;;;;;5006821;28;20457;-47
2021/01/20 10:08:36;;;;;;;10.40;7.73;;;7.10;99.90;;;;;;5000773;28;20449;-47
2021/01/20 10:11:04;;;;;;;13.73;9.77;;;7.20;99.90;;;;;;5011259;28;20946;-47
2021/01/20 10:13:30;;;;;;;14.97;8.27;;;7.20;99.90;;;;;;5001231;28;20479;-47
2021/01/20 10:15:58;;;;;;;9.30;6.00;;;7.10;99.90;;;;;;4991825;28;20493;-47
2021/01/20 10:18:24;;;;;;;10.50;6.27;;;7.00;99.90;;;;;;5010355;28;20970;-47
2021/01/20 10:20:51;;;;;;;9.67;6.40;;;7.00;99.90;;;;;;5011393;28;20457;-47
2021/01/20 10:23:18;;;;;;;8.97;6.20;;;7.00;99.90;;;;;;5009516;28;20994;-47
2021/01/20 10:25:46;;;;;;;7.77;5.80;;;7.20;99.90;;;;;;5007896;28;20453;-47
2021/01/20 10:28:13;;;;;;;11.53;6.50;;;7.30;99.90;;;;;;4991933;28;20458;-46
2021/01/20 10:30:40;;;;;;;9.13;6.50;;;7.40;99.90;;;;;;4991404;28;20442;-47
2021/01/20 10:33:07;;;;;;;9.93;6.27;;;7.60;99.90;;;;;;4997907;28;20468;-48
2021/01/20 10:35:34;;;;;;;9.40;6.50;;;7.70;99.90;;;;;;5010950;28;20448;-47
2021/01/20 10:38:00;;;;;;;8.87;5.70;;;7.70;99.90;;;;;;5010946;28;20839;-47
2021/01/20 10:40:27;;;;;;;10.60;6.80;;;7.90;99.90;;;;;;5010858;28;20489;-47
2021/01/20 10:42:53;;;;;;;14.37;8.90;;;8.00;99.90;;;;;;5010434;28;20492;-47
2021/01/20 10:45:20;;;;;;;11.50;7.30;;;8.10;99.90;;;;;;5010233;28;20453;-47
2021/01/20 10:47:47;;;;;;;13.67;8.93;;;8.00;99.90;;;;;;5011018;28;20452;-47
2021/01/20 10:50:14;;;;;;;10.33;7.20;;;7.70;99.90;;;;;;5010355;28;20457;-47
2021/01/20 10:52:41;;;;;;;26.00;12.67;;;7.70;99.90;;;;;;5009977;28;20461;-47
2021/01/20 10:55:08;;;;;;;30.13;14.63;;;7.70;99.90;;;;;;5010822;28;20512;-47
2021/01/20 10:57:35;;;;;;;19.73;12.23;;;7.80;99.90;;;;;;5010878;28;20519;-48
2021/01/20 11:00:01;;;;;;;24.63;14.80;;;8.00;99.90;;;;;;5010456;28;20489;-47
2021/01/20 11:02:28;;;;;;;23.63;14.07;;;8.20;99.90;;;;;;5009388;28;20802;-48
2021/01/20 11:04:54;;;;;;;24.37;14.60;;;8.40;99.90;;;;;;5008130;28;20520;-47
2021/01/20 11:07:22;;;;;;;30.13;15.97;;;8.40;99.90;;;;;;5010398;28;20453;-47
2021/01/20 11:09:51;;;;;;;26.03;15.13;;;8.40;99.90;;;;;;5010535;28;20938;-47
2021/01/20 11:12:18;;;;;;;28.70;15.40;;;8.40;99.90;;;;;;5010593;28;20445;-48
2021/01/20 11:14:44;;;;;;;19.63;10.27;;;8.60;99.90;;;;;;5009956;28;20473;-47
2021/01/20 11:17:11;;;;;;;12.27;7.03;;;8.70;99.90;;;;;;5010172;28;20483;-47
2021/01/20 11:19:37;;;;;;;16.53;9.57;;;8.80;99.90;;;;;;5010386;28;20854;-48
2021/01/20 11:22:04;;;;;;;13.70;7.10;;;8.80;99.90;;;;;;5007694;28;20454;-47
2021/01/20 11:24:31;;;;;;;12.30;7.73;;;8.90;99.90;;;;;;5007472;28;20473;-47
2021/01/20 11:26:58;;;;;;;12.50;7.37;;;8.90;99.90;;;;;;5010265;28;20456;-47
2021/01/20 11:29:24;;;;;;;9.20;4.63;;;8.50;99.90;;;;;;5010175;28;20952;-47
2021/01/20 11:31:51;;;;;;;11.40;7.33;;;8.30;99.90;;;;;;5010604;28;21016;-47
2021/01/20 11:34:17;;;;;;;14.70;9.53;;;8.20;99.90;;;;;;4995234;28;20470;-48
2021/01/20 11:36:44;;;;;;;16.10;9.70;;;7.40;99.90;;;;;;4990977;28;20519;-47
2021/01/20 11:39:11;;;;;;;16.57;9.80;;;6.80;99.90;;;;;;4990724;28;20888;-47
2021/01/20 11:41:38;;;;;;;18.87;11.47;;;7.30;99.90;;;;;;4990846;28;20448;-47
2021/01/20 11:44:05;;;;;;;30.47;15.83;;;7.60;99.90;;;;;;5003203;28;20861;-47
2021/01/20 11:46:32;;;;;;;19.37;11.80;;;7.90;99.90;;;;;;5010229;28;20449;-47
2021/01/20 11:49:06;;;;;;;21.50;11.93;;;8.00;99.90;;;;;;5010162;28;20449;-47
2021/01/20 11:51:32;;;;;;;23.13;13.17;;;8.10;99.90;;;;;;5010221;28;20456;-47
2021/01/20 11:53:59;;;;;;;20.30;11.80;;;8.20;99.90;;;;;;4998192;28;20480;-47
2021/01/20 11:56:26;;;;;;;10.93;7.10;;;8.10;99.90;;;;;;4991479;28;20447;-47
2021/01/20 11:58:54;;;;;;;10.23;5.97;;;8.40;99.90;;;;;;4999182;28;20542;-47
2021/01/20 12:01:22;;;;;;;9.00;5.57;;;8.60;99.90;;;;;;5011817;22;20510;-51
2021/01/20 12:03:49;;;;;;;7.20;3.83;;;8.60;99.90;;;;;;4974853;28;20451;-51
2021/01/20 12:06:16;;;;;;;6.70;3.20;;;8.80;99.90;;;;;;4970968;28;20535;-51
2021/01/20 12:08:42;;;;;;;3.73;2.40;;;8.90;99.90;;;;;;4966811;28;20812;-51
2021/01/20 12:11:09;;;;;;;3.17;1.97;;;8.90;99.90;;;;;;4971215;28;20468;-51
2021/01/20 12:13:35;;;;;;;2.13;1.30;;;9.10;99.90;;;;;;4972875;28;20451;-51
2021/01/20 12:16:03;;;;;;;3.13;1.50;;;9.20;99.90;;;;;;4974466;28;20486;-51
2021/01/20 12:18:29;;;;;;;3.40;1.37;;;9.40;99.90;;;;;;4941469;28;20482;-51
2021/01/20 12:20:55;;;;;;;3.40;1.30;;;9.30;99.90;;;;;;4954805;29;20494;-51
2021/01/20 12:23:22;;;;;;;3.10;1.30;;;9.30;99.90;;;;;;4955395;29;20448;-51
2021/01/20 12:25:48;;;;;;;1.80;1.30;;;9.10;99.90;;;;;;4954504;28;20957;-51
2021/01/20 12:28:15;;;;;;;2.93;1.63;;;9.20;99.90;;;;;;4955020;28;20451;-50
2021/01/20 12:30:41;;;;;;;4.20;1.57;;;9.10;99.90;;;;;;4960873;28;20468;-51
2021/01/20 12:33:09;;;;;;;1.53;1.43;;;9.00;99.90;;;;;;4955035;28;20456;-51
2021/01/20 12:35:35;;;;;;;3.00;1.30;;;9.00;99.90;;;;;;4955004;29;20459;-50
2021/01/20 12:38:03;;;;;;;3.97;1.50;;;8.90;99.90;;;;;;4954800;29;21013;-51
2021/01/20 12:40:30;;;;;;;1.40;1.30;;;8.90;99.90;;;;;;4954291;28;20997;-51
2021/01/20 12:42:56;;;;;;;4.03;1.50;;;8.90;99.90;;;;;;4954718;28;20984;-51
2021/01/20 12:45:23;;;;;;;2.13;1.60;;;8.90;99.90;;;;;;4954911;29;20503;-51
2021/01/20 12:47:49;;;;;;;6.93;1.53;;;8.90;99.90;;;;;;4954770;29;20460;-51
2021/01/20 12:50:17;;;;;;;3.37;1.30;;;8.90;99.90;;;;;;4963591;28;20533;-51
2021/01/20 12:52:43;;;;;;;1.77;1.27;;;8.90;99.90;;;;;;4961646;28;20473;-50
2021/01/20 12:55:11;;;;;;;1.97;1.20;;;8.80;99.90;;;;;;4955754;28;20872;-50
2021/01/20 12:57:37;;;;;;;2.50;1.13;;;8.90;99.90;;;;;;4956716;28;20467;-51
2021/01/20 13:00:05;;;;;;;3.93;1.10;;;9.10;99.90;;;;;;4963083;28;20487;-51
2021/01/20 13:02:32;;;;;;;4.87;1.00;;;9.10;99.90;;;;;;4954733;28;20837;-51
2021/01/20 13:04:58;;;;;;;2.33;1.43;;;9.00;99.90;;;;;;4955823;28;20511;-51
2021/01/20 13:07:26;;;;;;;3.47;1.33;;;9.10;99.90;;;;;;4960642;28;20519;-51